Wetterdaten: Woche 21.03.11 - 27.03.11 (KW12)
Datum Zeit Temperatur Luftfeuchte Luftdruck Niederschlag Windrichtung Sonnenschein Solar Wind
21.03.2011 00:00 -0,3 C 83 % 1032,0 hPa 0,0 l/m N 0,00 h 0 W/m 1,3 km/h (1 Bft)
21.03.2011 01:00 -0,7 C 84 % 1031,8 hPa 0,0 l/m N 0,00 h 0 W/m 2,0 km/h (1 Bft)
21.03.2011 02:00 -1,1 C 85 % 1031,7 hPa 0,0 l/m N-NO 0,00 h 0 W/m 4,3 km/h (1 Bft)
21.03.2011 03:00 -1,1 C 83 % 1031,7 hPa 0,0 l/m N-NO 0,00 h 0 W/m 5,1 km/h (1 Bft)
21.03.2011 04:00 -1,1 C 82 % 1031,8 hPa 0,0 l/m N-NO 0,00 h 0 W/m 5,7 km/h (1 Bft)
21.03.2011 05:00 -1,3 C 82 % 1031,9 hPa 0,0 l/m N-NO 0,00 h 0 W/m 5,5 km/h (1 Bft)
21.03.2011 06:00 -1,4 C 83 % 1032,3 hPa 0,0 l/m N-NO 0,08 h 15 W/m 5,7 km/h (1 Bft)
21.03.2011 07:00 -0,5 C 80 % 1032,7 hPa 0,0 l/m N-NO 0,00 h 44 W/m 7,1 km/h (2 Bft)
21.03.2011 08:00 1,6 C 70 % 1033,2 hPa 0,0 l/m O-NO 0,67 h 268 W/m 10,9 km/h (2 Bft)
21.03.2011 09:00 4,0 C 56 % 1033,3 hPa 0,0 l/m O-SO 1,00 h 480 W/m 20,2 km/h (4 Bft)
21.03.2011 10:00 5,3 C 51 % 1033,2 hPa 0,0 l/m O-SO 0,92 h 597 W/m 26,0 km/h (4 Bft)
21.03.2011 11:00 6,6 C 49 % 1033,2 hPa 0,0 l/m O-NO 1,00 h 679 W/m 27,6 km/h (4 Bft)
21.03.2011 12:00 7,6 C 46 % 1033,1 hPa 0,0 l/m O-NO 1,00 h 700 W/m 28,9 km/h (5 Bft)
21.03.2011 13:00 8,3 C 44 % 1032,8 hPa 0,0 l/m O 1,00 h 656 W/m 27,1 km/h (4 Bft)
21.03.2011 14:00 8,7 C 43 % 1032,2 hPa 0,0 l/m O 0,92 h 526 W/m 29,8 km/h (5 Bft)
21.03.2011 15:00 8,9 C 44 % 1031,9 hPa 0,0 l/m O-NO 1,00 h 438 W/m 24,9 km/h (4 Bft)
21.03.2011 16:00 8,4 C 45 % 1031,9 hPa 0,0 l/m NO 1,00 h 271 W/m 24,4 km/h (4 Bft)
21.03.2011 17:00 7,6 C 49 % 1032,1 hPa 0,0 l/m O-NO 0,42 h 87 W/m 24,7 km/h (4 Bft)
21.03.2011 18:00 6,3 C 54 % 1032,6 hPa 0,0 l/m O 0,00 h 14 W/m 17,7 km/h (3 Bft)
21.03.2011 19:00 5,2 C 59 % 1033,1 hPa 0,0 l/m O-NO 0,00 h 0 W/m 13,2 km/h (3 Bft)
21.03.2011 20:00 4,4 C 62 % 1033,4 hPa 0,0 l/m O-NO 0,00 h 0 W/m 13,4 km/h (3 Bft)
21.03.2011 21:00 3,7 C 65 % 1033,3 hPa 0,0 l/m O-NO 0,00 h 0 W/m 10,5 km/h (2 Bft)
21.03.2011 22:00 2,9 C 67 % 1033,1 hPa 0,0 l/m O-NO 0,00 h 0 W/m 8,8 km/h (2 Bft)
21.03.2011 23:00 2,3 C 68 % 1032,9 hPa 0,0 l/m O-NO 0,00 h 0 W/m 11,4 km/h (2 Bft)
22.03.2011 00:00 1,5 C 71 % 1033,0 hPa 0,0 l/m NO 0,00 h 0 W/m 8,2 km/h (2 Bft)
22.03.2011 01:00 -0,1 C 78 % 1033,1 hPa 0,0 l/m N 0,00 h 0 W/m 6,0 km/h (2 Bft)
22.03.2011 02:00 -0,7 C 82 % 1033,2 hPa 0,0 l/m N 0,00 h 0 W/m 4,7 km/h (1 Bft)
22.03.2011 03:00 -0,9 C 82 % 1033,2 hPa 0,0 l/m N 0,00 h 0 W/m 4,9 km/h (1 Bft)
22.03.2011 04:00 -0,9 C 83 % 1033,3 hPa 0,0 l/m NW 0,00 h 0 W/m 6,4 km/h (2 Bft)
22.03.2011 05:00 -1,1 C 84 % 1033,4 hPa 0,0 l/m N-NW 0,00 h 0 W/m 6,7 km/h (2 Bft)
22.03.2011 06:00 -1,3 C 85 % 1033,7 hPa 0,0 l/m N-NW 0,00 h 16 W/m 5,9 km/h (2 Bft)
22.03.2011 07:00 -0,9 C 85 % 1034,1 hPa 0,0 l/m N-NW 0,00 h 60 W/m 7,9 km/h (2 Bft)
22.03.2011 08:00 1,1 C 79 % 1034,8 hPa 0,0 l/m NO 0,67 h 251 W/m 8,3 km/h (2 Bft)
22.03.2011 09:00 3,2 C 72 % 1035,2 hPa 0,0 l/m NO 1,00 h 449 W/m 9,3 km/h (2 Bft)
22.03.2011 10:00 5,9 C 63 % 1034,9 hPa 0,0 l/m O-NO 0,92 h 548 W/m 11,9 km/h (2 Bft)
22.03.2011 11:00 8,4 C 52 % 1034,8 hPa 0,0 l/m NO 1,00 h 636 W/m 16,5 km/h (3 Bft)
22.03.2011 12:00 10,2 C 46 % 1034,7 hPa 0,0 l/m NO 1,00 h 669 W/m 18,1 km/h (3 Bft)
22.03.2011 13:00 11,4 C 42 % 1034,3 hPa 0,0 l/m O-NO 1,00 h 644 W/m 15,0 km/h (3 Bft)
22.03.2011 14:00 12,4 C 37 % 1033,7 hPa 0,0 l/m O-NO 1,00 h 531 W/m 17,6 km/h (3 Bft)
22.03.2011 15:00 12,6 C 35 % 1033,4 hPa 0,0 l/m O-NO 1,00 h 408 W/m 17,3 km/h (3 Bft)
22.03.2011 16:00 12,5 C 33 % 1033,5 hPa 0,0 l/m NO 1,00 h 255 W/m 17,3 km/h (3 Bft)
22.03.2011 17:00 11,8 C 35 % 1033,5 hPa 0,0 l/m O-NO 0,17 h 85 W/m 14,6 km/h (3 Bft)
22.03.2011 18:00 10,2 C 45 % 1033,8 hPa 0,0 l/m NO 0,08 h 16 W/m 7,2 km/h (2 Bft)
22.03.2011 19:00 7,5 C 61 % 1034,4 hPa 0,0 l/m N-NO 0,00 h 0 W/m 6,4 km/h (2 Bft)
22.03.2011 20:00 5,6 C 69 % 1034,8 hPa 0,0 l/m N-NO 0,00 h 0 W/m 4,4 km/h (1 Bft)
22.03.2011 21:00 4,8 C 72 % 1035,0 hPa 0,0 l/m N-NO 0,00 h 0 W/m 4,0 km/h (1 Bft)
22.03.2011 22:00 4,1 C 74 % 1035,2 hPa 0,0 l/m N-NO 0,00 h 0 W/m 4,8 km/h (1 Bft)
22.03.2011 23:00 3,1 C 77 % 1035,2 hPa 0,0 l/m N-NO 0,00 h 0 W/m 4,7 km/h (1 Bft)
23.03.2011 00:00 2,6 C 79 % 1035,3 hPa 0,0 l/m N-NO 0,00 h 0 W/m 5,6 km/h (1 Bft)
23.03.2011 01:00 2,4 C 78 % 1035,3 hPa 0,0 l/m N-NO 0,00 h 0 W/m 5,5 km/h (1 Bft)
23.03.2011 02:00 1,9 C 80 % 1035,1 hPa 0,0 l/m N-NO 0,00 h 0 W/m 4,3 km/h (1 Bft)
23.03.2011 03:00 1,5 C 81 % 1035,1 hPa 0,0 l/m N 0,00 h 0 W/m 4,0 km/h (1 Bft)
23.03.2011 04:00 1,1 C 82 % 1034,9 hPa 0,0 l/m N 0,00 h 0 W/m 4,3 km/h (1 Bft)
23.03.2011 05:00 1,1 C 81 % 1035,1 hPa 0,0 l/m N 0,00 h 0 W/m 4,7 km/h (1 Bft)
23.03.2011 06:00 1,1 C 80 % 1035,4 hPa 0,0 l/m N 0,25 h 23 W/m 5,2 km/h (1 Bft)
23.03.2011 07:00 2,8 C 74 % 1035,9 hPa 0,0 l/m N-NW 0,00 h 46 W/m 6,8 km/h (2 Bft)
23.03.2011 08:00 5,1 C 66 % 1036,3 hPa 0,0 l/m N-NO 0,75 h 295 W/m 8,0 km/h (2 Bft)
23.03.2011 09:00 8,1 C 57 % 1036,3 hPa 0,0 l/m NO 1,00 h 478 W/m 10,7 km/h (2 Bft)
23.03.2011 10:00 10,7 C 51 % 1036,1 hPa 0,0 l/m O-NO 0,92 h 609 W/m 14,1 km/h (3 Bft)
23.03.2011 11:00 12,6 C 47 % 1035,8 hPa 0,0 l/m O-NO 1,00 h 682 W/m 19,3 km/h (3 Bft)
23.03.2011 12:00 14,0 C 42 % 1035,3 hPa 0,0 l/m O 1,00 h 704 W/m 21,4 km/h (4 Bft)
23.03.2011 13:00 14,7 C 40 % 1035,0 hPa 0,0 l/m NO 1,00 h 662 W/m 20,9 km/h (4 Bft)
23.03.2011 14:00 15,0 C 40 % 1034,3 hPa 0,0 l/m O-NO 1,00 h 564 W/m 18,1 km/h (3 Bft)
23.03.2011 15:00 15,2 C 40 % 1033,7 hPa 0,0 l/m O-NO 1,00 h 440 W/m 16,2 km/h (3 Bft)
23.03.2011 16:00 15,0 C 41 % 1033,5 hPa 0,0 l/m NO 1,00 h 278 W/m 16,5 km/h (3 Bft)
23.03.2011 17:00 14,1 C 44 % 1033,5 hPa 0,0 l/m NO 0,58 h 103 W/m 17,0 km/h (3 Bft)
23.03.2011 18:00 12,3 C 50 % 1033,8 hPa 0,0 l/m O-NO 0,00 h 19 W/m 9,1 km/h (2 Bft)
23.03.2011 19:00 10,1 C 57 % 1034,4 hPa 0,0 l/m O-NO 0,00 h 0 W/m 4,8 km/h (1 Bft)
23.03.2011 20:00 7,7 C 66 % 1034,6 hPa 0,0 l/m O-NO 0,00 h 0 W/m 1,5 km/h (1 Bft)
23.03.2011 21:00 6,9 C 69 % 1034,7 hPa 0,0 l/m NO 0,00 h 0 W/m 2,5 km/h (1 Bft)
23.03.2011 22:00 5,7 C 74 % 1034,6 hPa 0,0 l/m NO 0,00 h 0 W/m 3,5 km/h (1 Bft)
23.03.2011 23:00 4,9 C 78 % 1034,5 hPa 0,0 l/m NO 0,00 h 0 W/m 3,7 km/h (1 Bft)
24.03.2011 00:00 4,3 C 81 % 1033,9 hPa 0,0 l/m NO 0,00 h 0 W/m 4,5 km/h (1 Bft)
24.03.2011 01:00 4,1 C 82 % 1033,5 hPa 0,0 l/m N 0,00 h 0 W/m 6,1 km/h (2 Bft)
24.03.2011 02:00 3,3 C 86 % 1033,2 hPa 0,0 l/m N 0,00 h 0 W/m 4,4 km/h (1 Bft)
24.03.2011 03:00 3,4 C 88 % 1032,9 hPa 0,0 l/m N 0,00 h 0 W/m 4,5 km/h (1 Bft)
24.03.2011 04:00 2,7 C 91 % 1032,7 hPa 0,0 l/m N 0,00 h 0 W/m 4,9 km/h (1 Bft)
24.03.2011 05:00 3,2 C 90 % 1032,8 hPa 0,0 l/m N 0,00 h 0 W/m 6,1 km/h (2 Bft)
24.03.2011 06:00 2,7 C 91 % 1033,0 hPa 0,0 l/m N 0,00 h 23 W/m 4,0 km/h (1 Bft)
24.03.2011 07:00 3,4 C 91 % 1033,1 hPa 0,0 l/m N 0,00 h 71 W/m 4,4 km/h (1 Bft)
24.03.2011 08:00 5,4 C 84 % 1033,2 hPa 0,0 l/m N 0,67 h 229 W/m 5,6 km/h (1 Bft)
24.03.2011 09:00 8,1 C 74 % 1033,4 hPa 0,0 l/m N-NO 1,00 h 423 W/m 7,8 km/h (2 Bft)
24.03.2011 10:00 10,6 C 62 % 1033,0 hPa 0,0 l/m NO 1,00 h 519 W/m 10,3 km/h (2 Bft)
24.03.2011 11:00 13,2 C 52 % 1032,6 hPa 0,0 l/m O-NO 1,00 h 635 W/m 9,8 km/h (2 Bft)
24.03.2011 12:00 14,4 C 49 % 1032,2 hPa 0,0 l/m NO 1,00 h 677 W/m 11,7 km/h (2 Bft)
24.03.2011 13:00 15,3 C 49 % 1031,5 hPa 0,0 l/m NO 1,00 h 628 W/m 11,2 km/h (2 Bft)
24.03.2011 14:00 16,3 C 47 % 1030,6 hPa 0,0 l/m NO 1,00 h 582 W/m 10,1 km/h (2 Bft)
24.03.2011 15:00 16,6 C 45 % 1029,7 hPa 0,0 l/m O-NO 1,00 h 431 W/m 11,0 km/h (2 Bft)
24.03.2011 16:00 16,8 C 44 % 1029,2 hPa 0,0 l/m O-SO 1,00 h 281 W/m 9,1 km/h (2 Bft)
24.03.2011 17:00 16,2 C 46 % 1028,6 hPa 0,0 l/m O-NO 0,50 h 102 W/m 6,8 km/h (2 Bft)
24.03.2011 18:00 13,8 C 54 % 1028,4 hPa 0,0 l/m N-NO 0,00 h 16 W/m 5,6 km/h (1 Bft)
24.03.2011 19:00 10,6 C 65 % 1028,3 hPa 0,0 l/m N-NO 0,00 h 0 W/m 4,5 km/h (1 Bft)
24.03.2011 20:00 9,0 C 68 % 1028,2 hPa 0,0 l/m N-NO 0,00 h 0 W/m 2,4 km/h (1 Bft)
24.03.2011 21:00 7,4 C 73 % 1027,9 hPa 0,0 l/m N 0,00 h 0 W/m 0,9 km/h (0 Bft)
24.03.2011 22:00 6,3 C 78 % 1027,3 hPa 0,0 l/m N 0,00 h 0 W/m 0,1 km/h (0 Bft)
24.03.2011 23:00 5,3 C 82 % 1026,7 hPa 0,0 l/m N 0,00 h 0 W/m 0,1 km/h (0 Bft)
25.03.2011 00:00 4,2 C 85 % 1026,0 hPa 0,0 l/m N 0,00 h 0 W/m 0,0 km/h (0 Bft)
25.03.2011 01:00 3,3 C 89 % 1025,4 hPa 0,0 l/m N 0,00 h 0 W/m 0,0 km/h (0 Bft)
25.03.2011 02:00 2,6 C 91 % 1025,0 hPa 0,0 l/m N 0,00 h 0 W/m 0,1 km/h (0 Bft)
25.03.2011 03:00 1,6 C 92 % 1024,5 hPa 0,0 l/m N 0,00 h 0 W/m 0,1 km/h (0 Bft)
25.03.2011 04:00 0,9 C 94 % 1023,9 hPa 0,0 l/m N 0,00 h 0 W/m 0,5 km/h (0 Bft)
25.03.2011 05:00 0,4 C 95 % 1023,6 hPa 0,0 l/m N 0,00 h 0 W/m 0,0 km/h (0 Bft)
25.03.2011 06:00 0,2 C 95 % 1023,3 hPa 0,0 l/m N 0,00 h 23 W/m 0,0 km/h (0 Bft)
25.03.2011 07:00 1,8 C 94 % 1023,1 hPa 0,0 l/m N 0,00 h 71 W/m 0,7 km/h (0 Bft)
25.03.2011 08:00 5,0 C 90 % 1022,9 hPa 0,0 l/m S-SW 0,67 h 261 W/m 4,3 km/h (1 Bft)
25.03.2011 09:00 9,5 C 76 % 1022,5 hPa 0,0 l/m S-SO 1,00 h 482 W/m 11,7 km/h (2 Bft)
25.03.2011 10:00 12,6 C 67 % 1021,6 hPa 0,0 l/m S 1,00 h 541 W/m 13,6 km/h (3 Bft)
25.03.2011 11:00 15,3 C 52 % 1020,6 hPa 0,0 l/m W-SW 1,00 h 619 W/m 20,6 km/h (4 Bft)
25.03.2011 12:00 16,5 C 45 % 1019,5 hPa 0,0 l/m SW 1,00 h 647 W/m 20,8 km/h (4 Bft)
25.03.2011 13:00 17,4 C 43 % 1018,3 hPa 0,0 l/m W-SW 1,00 h 609 W/m 21,4 km/h (4 Bft)
25.03.2011 14:00 18,1 C 38 % 1017,0 hPa 0,0 l/m W-SW 1,00 h 559 W/m 21,4 km/h (4 Bft)
25.03.2011 15:00 18,5 C 35 % 1016,1 hPa 0,0 l/m SW 1,00 h 460 W/m 24,3 km/h (4 Bft)
25.03.2011 16:00 18,1 C 34 % 1015,2 hPa 0,0 l/m W-SW 0,92 h 285 W/m 19,6 km/h (3 Bft)
25.03.2011 17:00 17,3 C 35 % 1014,6 hPa 0,0 l/m SW 0,50 h 103 W/m 16,4 km/h (3 Bft)
25.03.2011 18:00 15,3 C 41 % 1014,3 hPa 0,0 l/m W-SW 0,08 h 19 W/m 13,2 km/h (3 Bft)
25.03.2011 19:00 13,9 C 45 % 1014,4 hPa 0,0 l/m W 0,00 h 0 W/m 10,3 km/h (2 Bft)
25.03.2011 20:00 12,3 C 49 % 1014,6 hPa 0,0 l/m W 0,00 h 0 W/m 9,3 km/h (2 Bft)
25.03.2011 21:00 12,3 C 47 % 1014,5 hPa 0,0 l/m W-NW 0,00 h 0 W/m 11,0 km/h (2 Bft)
25.03.2011 22:00 11,8 C 49 % 1014,4 hPa 0,0 l/m W 0,00 h 0 W/m 11,7 km/h (2 Bft)
25.03.2011 23:00 11,1 C 50 % 1014,1 hPa 0,0 l/m W 0,00 h 0 W/m 11,2 km/h (2 Bft)
26.03.2011 00:00 8,1 C 62 % 1013,9 hPa 0,0 l/m W 0,00 h 0 W/m 2,7 km/h (1 Bft)
26.03.2011 01:00 6,2 C 72 % 1014,0 hPa 0,0 l/m SW 0,00 h 0 W/m 4,7 km/h (1 Bft)
26.03.2011 02:00 8,3 C 57 % 1013,6 hPa 0,0 l/m W-SW 0,00 h 0 W/m 8,9 km/h (2 Bft)
26.03.2011 03:00 8,7 C 54 % 1013,1 hPa 0,0 l/m W-SW 0,00 h 0 W/m 14,0 km/h (3 Bft)
26.03.2011 04:00 9,3 C 52 % 1012,9 hPa 0,0 l/m W 0,00 h 0 W/m 17,4 km/h (3 Bft)
26.03.2011 05:00 7,6 C 60 % 1013,0 hPa 0,0 l/m O-SO 0,00 h 0 W/m 11,0 km/h (2 Bft)
26.03.2011 06:00 4,7 C 77 % 1013,1 hPa 0,0 l/m N 0,33 h 29 W/m 2,0 km/h (1 Bft)
26.03.2011 07:00 6,0 C 75 % 1013,0 hPa 0,0 l/m O-SO 0,00 h 77 W/m 2,8 km/h (1 Bft)
26.03.2011 08:00 9,3 C 61 % 1013,0 hPa 0,0 l/m SW 0,92 h 302 W/m 7,2 km/h (2 Bft)
26.03.2011 09:00 11,8 C 51 % 1012,9 hPa 0,0 l/m SW 1,00 h 473 W/m 16,1 km/h (3 Bft)
26.03.2011 10:00 13,6 C 47 % 1012,7 hPa 0,0 l/m SW 0,92 h 631 W/m 20,4 km/h (4 Bft)
26.03.2011 11:00 13,6 C 50 % 1012,9 hPa 0,0 l/m W-SW 0,42 h 313 W/m 22,3 km/h (4 Bft)
26.03.2011 12:00 9,8 C 77 % 1013,4 hPa 0,0 l/m N-NW 0,00 h 159 W/m 16,0 km/h (3 Bft)
26.03.2011 13:00 11,8 C 63 % 1012,8 hPa 0,0 l/m W-SW 0,67 h 562 W/m 24,9 km/h (4 Bft)
26.03.2011 14:00 13,6 C 50 % 1012,0 hPa 0,0 l/m W-SW 0,67 h 375 W/m 21,4 km/h (4 Bft)
26.03.2011 15:00 13,6 C 50 % 1011,5 hPa 0,0 l/m W 0,33 h 230 W/m 22,2 km/h (4 Bft)
26.03.2011 16:00 13,5 C 49 % 1011,5 hPa 0,0 l/m W-SW 0,42 h 203 W/m 20,8 km/h (4 Bft)
26.03.2011 17:00 12,8 C 51 % 1011,8 hPa 0,0 l/m W 0,00 h 67 W/m 20,0 km/h (4 Bft)
26.03.2011 18:00 11,6 C 56 % 1012,4 hPa 0,0 l/m W-NW 0,00 h 18 W/m 15,3 km/h (3 Bft)
26.03.2011 19:00 10,7 C 61 % 1012,8 hPa 0,0 l/m W-NW 0,00 h 0 W/m 9,3 km/h (2 Bft)
26.03.2011 20:00 10,0 C 67 % 1013,0 hPa 0,0 l/m NO 0,00 h 0 W/m 4,8 km/h (1 Bft)
26.03.2011 21:00 9,1 C 73 % 1013,2 hPa 0,0 l/m N 0,00 h 0 W/m 0,0 km/h (0 Bft)
26.03.2011 22:00 8,0 C 86 % 1013,7 hPa 0,8 l/m N 0,00 h 0 W/m 1,6 km/h (1 Bft)
26.03.2011 23:00 7,2 C 94 % 1013,5 hPa 0,0 l/m NO 0,00 h 0 W/m 1,1 km/h (0 Bft)
27.03.2011 00:00 6,7 C 95 % 1013,2 hPa 0,0 l/m NO 0,00 h 0 W/m 2,1 km/h (1 Bft)
27.03.2011 01:00 6,6 C 96 % 1013,0 hPa 0,0 l/m NO 0,00 h 0 W/m 1,5 km/h (1 Bft)
27.03.2011 03:00 6,3 C 96 % 1012,9 hPa 0,0 l/m NO 0,00 h 0 W/m 3,5 km/h (1 Bft)
27.03.2011 04:00 6,0 C 96 % 1012,5 hPa 0,0 l/m N 0,00 h 0 W/m 1,1 km/h (0 Bft)
27.03.2011 05:00 5,8 C 97 % 1012,2 hPa 0,0 l/m NO 0,00 h 0 W/m 4,0 km/h (1 Bft)
27.03.2011 06:00 5,8 C 97 % 1012,0 hPa 0,0 l/m NO 0,00 h 0 W/m 5,1 km/h (1 Bft)
27.03.2011 07:00 5,7 C 98 % 1011,9 hPa 1,4 l/m N 0,00 h 16 W/m 3,6 km/h (1 Bft)
27.03.2011 08:00 6,0 C 98 % 1011,7 hPa 0,6 l/m N 0,00 h 36 W/m 2,0 km/h (1 Bft)
27.03.2011 09:00 6,5 C 98 % 1011,5 hPa 0,8 l/m N 0,00 h 55 W/m 4,5 km/h (1 Bft)
27.03.2011 10:00 6,4 C 98 % 1012,0 hPa 2,2 l/m N 0,00 h 72 W/m 8,6 km/h (2 Bft)
27.03.2011 11:00 6,3 C 98 % 1012,4 hPa 1,6 l/m N-NW 0,00 h 76 W/m 5,5 km/h (1 Bft)
27.03.2011 12:00 7,0 C 97 % 1012,1 hPa 1,0 l/m N 0,00 h 103 W/m 2,9 km/h (1 Bft)
27.03.2011 13:00 7,3 C 96 % 1011,8 hPa 0,6 l/m N 0,00 h 103 W/m 3,1 km/h (1 Bft)
27.03.2011 14:00 7,9 C 94 % 1011,5 hPa 0,2 l/m O-NO 0,00 h 140 W/m 4,0 km/h (1 Bft)
27.03.2011 15:00 8,8 C 89 % 1011,2 hPa 0,0 l/m O-NO 0,00 h 130 W/m 4,3 km/h (1 Bft)
27.03.2011 16:00 9,1 C 88 % 1010,8 hPa 0,0 l/m O-NO 0,00 h 98 W/m 4,5 km/h (1 Bft)
27.03.2011 17:00 9,1 C 86 % 1010,5 hPa 0,0 l/m O-NO 0,00 h 60 W/m 6,4 km/h (2 Bft)
27.03.2011 18:00 9,0 C 87 % 1010,4 hPa 0,0 l/m O-NO 0,00 h 45 W/m 7,2 km/h (2 Bft)
27.03.2011 19:00 8,5 C 91 % 1010,5 hPa 0,0 l/m O-NO 0,00 h 11 W/m 4,4 km/h (1 Bft)
27.03.2011 20:00 7,8 C 93 % 1010,8 hPa 0,0 l/m O-NO 0,00 h 0 W/m 3,5 km/h (1 Bft)
27.03.2011 21:00 7,2 C 95 % 1011,1 hPa 0,0 l/m O-NO 0,00 h 0 W/m 1,9 km/h (1 Bft)
27.03.2011 22:00 6,6 C 95 % 1010,8 hPa 0,0 l/m O-NO 0,00 h 0 W/m 1,7 km/h (1 Bft)
27.03.2011 23:00 5,1 C 97 % 1010,7 hPa 0,0 l/m N 0,00 h 0 W/m 2,4 km/h (1 Bft)
Min-Datum _ 21.03.11 22.03.11 27.03.11 - - - - 21.03.11
_ Min-Zeit 06:40 16:15 17:10 - - - - 00:05
Minimum _ -1,6 C 32 % 1010,4 hPa - - - - 0,0 km/h (0 Bft)
Max-Datum _ 25.03.11 27.03.11 23.03.11 27.03.11 - 21.03.11 26.03.11 21.03.11
_ Max-Zeit 15:10 06:30 08:45 10:10 - 06:35 13:45 11:25
Maximum _ 18,6 C 98 % 1036,5 hPa 2,2 l/m - 0,08 h 775 W/m 38,6 km/h
O (5 Bft)
Durchschnitt _ 7,4 C 68 % 1025,3 hPa #9,2 l/m O-NO #51:20 h 307 W/m 9,4 km/h (2 Bft)